Aviation Digital Data Service (ADDS)

Output produced by METARs form (1339 UTC 03 December 2016)
found at http://aviationweather.gov/adds/metars/
 
KFDY 031139Z 0312/0412 28006KT P6SM OVC035 
     TEMPO 0316/0319 BKN028 
     FM040100 VRB03KT P6SM BKN035 
     FM040400 VRB03KT P6SM SCT035 OVC150